Hoopeston, Illinois
Current Conditions -  °F | °C
As of 5:35 PM on Friday 19 Dec 2014 (Local Time) from KDNV Reporting Station
Overcast Overcast  
Wind Chill: 30°   Ceiling: 2800
Heat Index: 30°   Visibility: 10mi
Dew Point: 26°   Wind: 3mph
Humidity: 86%   Direction: 90°E
Pressure: 30.27"   Gusts: NA
Location:  40.47°N, 87.67°W
Report Text: KDNV 192335Z AUTO 09003KT 10SM OVC028 M01/M03 A3027 RMK AO2 T10111032
Loading
Personal Weather Stations






























Interactive Weather Map New forecast layout! Learn more

10-Day Weather Forecast

Advertisements
Track Severe Weather on mobile